Time;durP1;ratioP1;P1;durP2;ratioP2;P2;SDS_P1;SDS_P2;PMS_P1;PMS_P2;Temp;Humidity;BMP_temperature;BMP_pressure;BME280_temperature;BME280_humidity;BME280_pressure;Samples;Min_cycle;Max_cycle;Signal;HPM_P1;HPM_P2
2022/06/06 00:00:08;;;;;;;7.53;6.28;;;;;;;-144.82;100.00;71671.09;4956217;29;20491;-79
2022/06/06 00:02:36;;;;;;;6.68;5.95;;;;;;;-144.82;100.00;71671.09;4974689;28;20118;-79
2022/06/06 00:05:02;;;;;;;9.23;6.35;;;;;;;-144.82;100.00;71671.09;4976413;28;20038;-78
2022/06/06 00:07:28;;;;;;;7.90;5.97;;;;;;;-144.82;100.00;71671.09;4975253;28;20104;-78
2022/06/06 00:09:56;;;;;;;6.72;6.00;;;;;;;-144.82;100.00;71671.09;4976198;28;20027;-79
2022/06/06 00:12:23;;;;;;;7.22;6.47;;;;;;;-144.82;100.00;71671.09;4991113;28;20045;-79
2022/06/06 00:14:49;;;;;;;7.78;6.00;;;;;;;-144.82;100.00;71671.09;4976302;28;20031;-79
2022/06/06 00:17:15;;;;;;;9.88;6.57;;;;;;;-144.82;100.00;71671.09;4976236;28;20464;-78
2022/06/06 00:19:41;;;;;;;6.88;6.18;;;;;;;-144.82;100.00;71671.09;4976263;28;20045;-79
2022/06/06 00:22:07;;;;;;;7.07;6.20;;;;;;;-144.82;100.00;71671.09;4976605;28;20038;-78
2022/06/06 00:24:34;;;;;;;6.57;5.97;;;;;;;-144.82;100.00;71671.09;4974771;28;20035;-79
2022/06/06 00:27:00;;;;;;;7.57;6.53;;;;;;;-144.82;100.00;71671.09;4976319;28;20023;-78
2022/06/06 00:29:27;;;;;;;6.72;5.82;;;;;;;-144.82;100.00;71671.09;4975905;28;20452;-79
2022/06/06 00:34:48;;;;;;;5.88;5.15;;;;;;;-144.82;100.00;71671.09;4989615;28;20053;-79
2022/06/06 00:37:18;;;;;;;6.72;6.10;;;;;;;-144.82;100.00;71671.09;5014878;28;20037;-78
2022/06/06 00:39:45;;;;;;;6.75;5.47;;;;;;;-144.82;100.00;71671.09;4997713;28;20049;-79
2022/06/06 00:42:34;;;;;;;6.13;5.53;;;;;;;-144.82;100.00;71671.09;4997463;28;20033;-79
2022/06/06 00:45:32;;;;;;;6.07;5.47;;;;;;;-144.82;100.00;71671.09;4997134;28;20379;-79
2022/06/06 00:48:18;;;;;;;8.10;5.78;;;;;;;-144.82;100.00;71671.09;4980807;28;20479;-79
2022/06/06 00:51:04;;;;;;;6.10;5.50;;;;;;;-144.82;100.00;71671.09;4997492;28;20032;-78
2022/06/06 00:53:30;;;;;;;6.20;5.53;;;;;;;-144.82;100.00;71671.09;4997084;28;20061;-80
2022/06/06 00:56:02;;;;;;;6.57;5.97;;;;;;;-144.82;100.00;71671.09;5014794;28;20153;-80
2022/06/06 00:58:30;;;;;;;6.70;5.85;;;;;;;-144.82;100.00;71671.09;4980595;28;20053;-80
2022/06/06 01:00:55;;;;;;;8.45;5.72;;;;;;;-144.82;100.00;71671.09;4964572;28;20434;-79
2022/06/06 01:03:25;;;;;;;6.10;5.18;;;;;;;-144.82;100.00;71671.09;4995954;28;20029;-79
2022/06/06 01:05:51;;;;;;;6.75;5.50;;;;;;;-144.82;100.00;71671.09;4997061;28;20025;-79
2022/06/06 01:08:28;;;;;;;8.25;6.30;;;;;;;-144.82;100.00;71671.09;4980450;28;20471;-79
2022/06/06 01:10:55;;;;;;;6.97;6.18;;;;;;;-144.82;100.00;71671.09;5014475;28;20029;-79
2022/06/06 01:13:23;;;;;;;7.60;6.28;;;;;;;-144.82;100.00;71671.09;5014262;28;20034;-79
2022/06/06 01:16:28;;;;;;;6.07;5.47;;;;;;;-144.82;100.00;71671.09;4980491;28;20112;-79
2022/06/06 01:19:13;;;;;;;6.60;5.63;;;;;;;-144.82;100.00;71671.09;4985626;28;20077;-79
2022/06/06 01:22:31;;;;;;;6.50;5.78;;;;;;;-144.82;100.00;71671.09;5014373;28;20025;-80
2022/06/06 01:25:38;;;;;;;8.38;5.68;;;;;;;-144.82;100.00;71671.09;4918709;29;20039;-79
2022/06/06 01:28:34;;;;;;;9.02;5.65;;;;;;;-144.82;100.00;71671.09;4905750;29;20044;-79
2022/06/06 01:31:06;;;;;;;6.18;5.57;;;;;;;-144.82;100.00;71671.09;4934450;29;20039;-79
2022/06/06 01:33:54;;;;;;;5.18;4.68;;;;;;;-144.82;100.00;71671.09;4996182;28;20049;-79
2022/06/06 01:36:20;;;;;;;6.28;5.43;;;;;;;-144.82;100.00;71671.09;4942447;28;20043;-79
2022/06/06 01:38:46;;;;;;;6.63;4.85;;;;;;;-144.82;100.00;71671.09;4957380;28;20504;-80
2022/06/06 01:41:18;;;;;;;6.00;5.30;;;;;;;-144.82;100.00;71671.09;4957947;28;20487;-80
2022/06/06 01:44:16;;;;;;;7.60;5.88;;;;;;;-144.82;100.00;71671.09;4942201;28;20054;-79
2022/06/06 01:46:42;;;;;;;6.70;5.32;;;;;;;-144.82;100.00;71671.09;4963049;28;20034;-80
2022/06/06 01:49:11;;;;;;;7.15;5.60;;;;;;;-144.82;100.00;71671.09;4974634;28;20018;-79
2022/06/06 01:51:37;;;;;;;6.80;6.15;;;;;;;-144.82;100.00;71671.09;4941414;28;20038;-79
2022/06/06 01:54:04;;;;;;;6.35;5.65;;;;;;;-144.82;100.00;71671.09;4974855;28;20073;-80
2022/06/06 01:56:36;;;;;;;5.40;4.90;;;;;;;-144.82;100.00;71671.09;4957281;28;20518;-80
2022/06/06 01:59:03;;;;;;;7.13;4.95;;;;;;;-144.82;100.00;71671.09;4941618;28;20089;-80
2022/06/06 02:01:30;;;;;;;7.68;5.30;;;;;;;-144.82;100.00;71671.09;4957292;28;20085;-79
2022/06/06 02:03:56;;;;;;;6.75;5.57;;;;;;;-144.82;100.00;71671.09;4973617;28;20026;-79
2022/06/06 02:06:22;;;;;;;7.43;5.32;;;;;;;-144.82;100.00;71671.09;4957347;28;20026;-80
2022/06/06 02:08:50;;;;;;;5.72;5.20;;;;;;;-144.82;100.00;71671.09;4973307;28;20074;-80
2022/06/06 02:11:18;;;;;;;6.40;5.80;;;;;;;-144.82;100.00;71671.09;4957574;28;20046;-80
2022/06/06 02:13:44;;;;;;;6.28;5.28;;;;;;;-144.82;100.00;71671.09;4973661;28;20430;-79
2022/06/06 02:16:10;;;;;;;6.13;5.53;;;;;;;-144.82;100.00;71671.09;4978517;28;20550;-80
2022/06/06 02:18:36;;;;;;;5.50;5.00;;;;;;;-144.82;100.00;71671.09;4977123;28;20114;-80
2022/06/06 02:21:05;;;;;;;8.65;5.35;;;;;;;-144.82;100.00;71671.09;4978452;28;20090;-80
2022/06/06 02:23:31;;;;;;;7.45;5.35;;;;;;;-144.82;100.00;71671.09;4976850;28;20022;-80
2022/06/06 02:25:57;;;;;;;6.47;5.15;;;;;;;-144.82;100.00;71671.09;4977156;28;20145;-79
2022/06/06 02:28:25;;;;;;;5.20;4.70;;;;;;;-144.82;100.00;71671.09;4976414;28;20117;-80
2022/06/06 02:31:03;;;;;;;6.05;5.45;;;;;;;-144.82;100.00;71671.09;4943680;28;20072;-80
2022/06/06 02:33:29;;;;;;;7.05;5.43;;;;;;;-144.82;100.00;71671.09;4959684;28;20119;-79
2022/06/06 02:36:06;;;;;;;7.28;5.45;;;;;;;-144.82;100.00;71671.09;4975400;28;20126;-79
2022/06/06 02:38:38;;;;;;;7.18;5.47;;;;;;;-144.82;100.00;71671.09;4976809;28;20023;-79
2022/06/06 02:41:18;;;;;;;6.22;5.63;;;;;;;-144.82;100.00;71671.09;4960242;28;20034;-79
2022/06/06 02:43:44;;;;;;;6.75;6.03;;;;;;;-144.82;100.00;71671.09;4975391;28;20532;-79
2022/06/06 02:46:11;;;;;;;7.20;6.15;;;;;;;-144.82;100.00;71671.09;4975950;28;20061;-79
2022/06/06 02:48:38;;;;;;;6.93;5.57;;;;;;;-144.82;100.00;71671.09;4976647;28;20037;-79
2022/06/06 02:51:05;;;;;;;7.97;5.22;;;;;;;-144.82;100.00;71671.09;4977739;28;20070;-79
2022/06/06 02:53:31;;;;;;;9.02;5.10;;;;;;;-144.82;100.00;71671.09;4976213;28;20109;-79
2022/06/06 02:55:57;;;;;;;6.45;5.32;;;;;;;-144.82;100.00;71671.09;4977837;28;20027;-79
2022/06/06 02:58:25;;;;;;;6.75;6.10;;;;;;;-144.82;100.00;71671.09;4960420;28;20054;-79
2022/06/06 03:01:07;;;;;;;7.35;5.53;;;;;;;-144.82;100.00;71671.09;4976591;28;20034;-80
2022/06/06 03:03:42;;;;;;;6.43;5.72;;;;;;;-144.82;100.00;71671.09;4960347;28;20110;-79
2022/06/06 03:06:36;;;;;;;5.35;4.85;;;;;;;-144.82;100.00;71671.09;4976193;28;20070;-79
2022/06/06 03:09:16;;;;;;;6.57;5.88;;;;;;;-144.82;100.00;71671.09;4977673;28;20113;-78
2022/06/06 03:12:00;;;;;;;7.15;6.28;;;;;;;-144.82;100.00;71671.09;4977611;28;20053;-78
2022/06/06 03:14:57;;;;;;;7.38;6.10;;;;;;;-144.82;100.00;71671.09;4977350;28;20050;-78
2022/06/06 03:23:35;;;;;;;6.88;5.97;;;;;;;-144.82;100.00;71671.09;4977303;28;20396;-79
2022/06/06 03:26:29;;;;;;;9.30;6.05;;;;;;;-144.82;100.00;71671.09;4976519;28;20031;-79
2022/06/06 03:29:03;;;;;;;7.40;5.95;;;;;;;-144.82;100.00;71671.09;4977029;28;20050;-78
2022/06/06 03:31:57;;;;;;;11.63;6.25;;;;;;;-144.82;100.00;71671.09;4959716;28;20109;-78
2022/06/06 03:34:48;;;;;;;7.63;6.20;;;;;;;-144.82;100.00;71671.09;4985634;28;20373;-79
2022/06/06 03:37:16;;;;;;;7.05;6.00;;;;;;;-144.82;100.00;71671.09;4998320;28;20574;-80
2022/06/06 03:39:57;;;;;;;10.30;7.10;;;;;;;-144.82;100.00;71671.09;5015928;28;20494;-79
2022/06/06 03:42:37;;;;;;;8.65;6.63;;;;;;;-144.82;100.00;71671.09;4998439;28;20026;-79
2022/06/06 03:45:21;;;;;;;11.55;6.65;;;;;;;-144.82;100.00;71671.09;5018659;28;20541;-79
2022/06/06 03:48:17;;;;;;;9.55;5.95;;;;;;;-144.82;100.00;71671.09;5009789;28;20032;-78
2022/06/06 03:51:15;;;;;;;6.82;5.10;;;;;;;-144.82;100.00;71671.09;5021425;28;20026;-79
2022/06/06 03:54:19;;;;;;;9.35;6.35;;;;;;;-144.82;100.00;71671.09;5031025;28;20025;-79
2022/06/06 03:57:18;;;;;;;7.28;6.00;;;;;;;-144.82;100.00;71671.09;5015542;28;20032;-79
2022/06/06 03:59:48;;;;;;;8.98;6.38;;;;;;;-144.82;100.00;71671.09;5015978;28;20021;-79
2022/06/06 04:02:31;;;;;;;9.55;6.75;;;;;;;-144.82;100.00;71671.09;4981865;28;20076;-78
2022/06/06 04:05:17;;;;;;;8.63;5.80;;;;;;;-144.82;100.00;71671.09;5000228;28;20477;-80
2022/06/06 04:07:43;;;;;;;8.82;6.55;;;;;;;-144.82;100.00;71671.09;4982552;28;20463;-79
2022/06/06 04:10:11;;;;;;;10.35;6.25;;;;;;;-144.82;100.00;71671.09;5014623;28;20042;-80
2022/06/06 04:12:55;;;;;;;13.30;6.35;;;;;;;-144.82;100.00;71671.09;4981995;28;20041;-78
2022/06/06 04:15:39;;;;;;;7.60;6.72;;;;;;;-144.82;100.00;71671.09;5015240;28;20025;-80
2022/06/06 04:18:45;;;;;;;9.32;6.15;;;;;;;-144.82;100.00;71671.09;5015683;28;20037;-79
2022/06/06 04:21:34;;;;;;;8.32;6.28;;;;;;;-144.82;100.00;71671.09;4916622;29;20039;-79
2022/06/06 04:24:45;;;;;;;9.50;5.75;;;;;;;-144.82;100.00;71671.09;5024826;28;20549;-80
2022/06/06 04:27:30;;;;;;;7.93;6.80;;;;;;;-144.82;100.00;71671.09;5011190;28;20096;-80
2022/06/06 04:30:16;;;;;;;9.68;6.20;;;;;;;-144.82;100.00;71671.09;5015226;28;20042;-80
2022/06/06 04:33:04;;;;;;;6.97;5.78;;;;;;;-144.82;100.00;71671.09;5014663;28;20448;-79
2022/06/06 04:35:46;;;;;;;8.85;6.40;;;;;;;-144.82;100.00;71671.09;5014134;28;20111;-79
2022/06/06 04:38:38;;;;;;;9.68;6.32;;;;;;;-144.82;100.00;71671.09;4998396;28;20053;-80
2022/06/06 04:41:15;;;;;;;;;;;;;;;-144.82;100.00;71671.09;5014956;28;20033;-80
2022/06/06 04:44:00;;;;;;;8.90;7.15;;;;;;;-144.82;100.00;71671.09;4997282;28;20351;-79
2022/06/06 04:46:45;;;;;;;9.18;6.45;;;;;;;-144.82;100.00;71671.09;4998106;28;20026;-80
2022/06/06 04:49:12;;;;;;;11.13;6.93;;;;;;;-144.82;100.00;71671.09;4997711;28;20037;-80
2022/06/06 04:51:59;;;;;;;9.65;6.47;;;;;;;-144.82;100.00;71671.09;4981271;28;20037;-79
2022/06/06 04:54:26;;;;;;;9.02;7.55;;;;;;;-144.82;100.00;71671.09;5014786;28;20467;-78
2022/06/06 04:56:53;;;;;;;9.48;7.53;;;;;;;-144.82;100.00;71671.09;4980955;28;20120;-77
2022/06/06 04:59:21;;;;;;;12.80;8.25;;;;;;;-144.82;100.00;71671.09;5014625;28;20030;-79
2022/06/06 05:01:47;;;;;;;9.25;7.53;;;;;;;-144.82;100.00;71671.09;5014599;28;20026;-79
2022/06/06 05:04:13;;;;;;;8.10;6.82;;;;;;;-144.82;100.00;71671.09;4996861;28;20042;-80
2022/06/06 05:06:58;;;;;;;9.30;6.75;;;;;;;-144.82;100.00;71671.09;5014365;28;20447;-79
2022/06/06 05:09:54;;;;;;;9.75;7.53;;;;;;;-144.82;100.00;71671.09;4996401;28;20037;-79
2022/06/06 05:12:49;;;;;;;8.27;7.45;;;;;;;-144.82;100.00;71671.09;5014128;28;20537;-80
2022/06/06 05:15:24;;;;;;;9.00;6.75;;;;;;;-144.82;100.00;71671.09;4997036;28;20058;-79
2022/06/06 05:18:06;;;;;;;10.20;7.03;;;;;;;-144.82;100.00;71671.09;5015327;28;20030;-79
2022/06/06 05:20:33;;;;;;;9.48;7.00;;;;;;;-144.82;100.00;71671.09;5014314;28;20080;-78
2022/06/06 05:23:09;;;;;;;11.48;8.00;;;;;;;-144.82;100.00;71671.09;5013738;28;20022;-79
2022/06/06 05:25:41;;;;;;;8.88;6.95;;;;;;;-144.82;100.00;71671.09;5013752;28;20033;-80
2022/06/06 05:28:29;;;;;;;8.95;7.00;;;;;;;-144.82;100.00;71671.09;4996236;28;20037;-79
2022/06/06 05:31:04;;;;;;;12.40;8.07;;;;;;;-144.82;100.00;71671.09;5013982;28;20101;-85
2022/06/06 05:33:54;;;;;;;25.80;9.07;;;;;;;-144.82;100.00;71671.09;4996250;28;20030;-82
2022/06/06 05:36:35;;;;;;;27.75;10.88;;;;;;;-144.82;100.00;71671.09;4965079;28;20051;-82
2022/06/06 05:39:34;;;;;;;11.07;6.55;;;;;;;-144.82;100.00;71671.09;4975328;28;20046;-81
2022/06/06 05:42:06;;;;;;;22.17;9.82;;;;;;;-144.82;100.00;71671.09;4975018;28;20546;-81
2022/06/06 05:44:42;;;;;;;;;;;;;;;-144.82;100.00;71671.09;4975352;28;20042;-81
2022/06/06 05:47:45;;;;;;;24.75;11.63;;;;;;;-144.82;100.00;71671.09;4973830;28;19918;-79
2022/06/06 05:50:23;;;;;;;9.23;6.93;;;;;;;-144.82;100.00;71671.09;4974224;28;20120;-78
2022/06/06 05:53:00;;;;;;;9.88;6.30;;;;;;;-144.82;100.00;71671.09;4974738;28;20054;-77
2022/06/06 05:55:45;;;;;;;10.27;6.70;;;;;;;-144.82;100.00;71671.09;4974403;28;20468;-78
2022/06/06 05:58:30;;;;;;;18.15;9.63;;;;;;;-144.82;100.00;71671.09;4974394;28;20468;-77
2022/06/06 06:01:21;;;;;;;11.30;7.22;;;;;;;-144.82;100.00;71671.09;4974940;28;20050;-78
2022/06/06 06:04:29;;;;;;;6.05;5.45;;;;;;;-144.82;100.00;71671.09;4974809;28;20041;-84
2022/06/06 06:07:03;;;;;;;7.45;5.57;;;;;;;-144.82;100.00;71671.09;4974520;28;20027;-83
2022/06/06 06:09:37;;;;;;;7.25;5.78;;;;;;;-144.82;100.00;71671.09;4957413;28;20183;-85
2022/06/06 06:12:17;;;;;;;8.07;6.25;;;;;;;-144.82;100.00;71671.09;4976492;28;20468;-74
2022/06/06 06:15:21;;;;;;;7.90;6.45;;;;;;;-144.82;100.00;71671.09;4954362;28;20031;-74
2022/06/06 06:17:49;;;;;;;8.77;6.40;;;;;;;-144.82;100.00;71671.09;4955132;28;20064;-83
2022/06/06 06:20:41;;;;;;;8.70;6.53;;;;;;;-144.82;100.00;71671.09;4937582;29;20070;-78
2022/06/06 06:23:10;;;;;;;7.40;5.88;;;;;;;-144.82;100.00;71671.09;4938995;28;20035;-79
2022/06/06 06:25:39;;;;;;;6.43;5.47;;;;;;;-144.82;100.00;71671.09;4968871;28;20129;-77
2022/06/06 06:28:10;;;;;;;6.25;5.35;;;;;;;-144.82;100.00;71671.09;4972753;28;20058;-76
2022/06/06 06:30:45;;;;;;;7.22;5.90;;;;;;;-144.82;100.00;71671.09;4972731;28;20380;-79
2022/06/06 06:33:19;;;;;;;7.72;5.30;;;;;;;-144.82;100.00;71671.09;4972149;28;20089;-78
2022/06/06 06:36:15;;;;;;;6.72;5.15;;;;;;;-144.82;100.00;71671.09;4972638;28;20066;-77
2022/06/06 06:38:56;;;;;;;7.03;5.65;;;;;;;-144.82;100.00;71671.09;4973504;28;20018;-78
2022/06/06 06:41:45;;;;;;;6.72;5.95;;;;;;;-144.82;100.00;71671.09;4972746;28;20031;-78
2022/06/06 06:44:17;;;;;;;5.63;5.20;;;;;;;-144.82;100.00;71671.09;4972878;28;20183;-79
2022/06/06 06:46:48;;;;;;;6.03;5.18;;;;;;;-144.82;100.00;71671.09;4974265;28;20053;-80
2022/06/06 06:49:13;;;;;;;;;;;;;;;-144.82;100.00;71671.09;4957013;28;20031;-79
2022/06/06 06:52:14;;;;;;;4.97;4.57;;;;;;;-144.82;100.00;71671.09;4972531;28;19910;-79
2022/06/06 06:55:04;;;;;;;6.32;5.28;;;;;;;-144.82;100.00;71671.09;4946112;28;20035;-78
2022/06/06 06:57:54;;;;;;;6.25;5.57;;;;;;;-144.82;100.00;71671.09;4973629;28;20042;-77
2022/06/06 07:00:21;;;;;;;5.95;5.28;;;;;;;-144.82;100.00;71671.09;4972788;28;20376;-78
2022/06/06 07:08:55;;;;;;;5.50;4.95;;;;;;;-144.82;100.00;71671.09;4976168;28;20090;-74
2022/06/06 07:11:39;;;;;;;7.13;4.78;;;;;;;-144.82;100.00;71671.09;4968312;28;20031;-76
2022/06/06 07:14:11;;;;;;;4.50;4.15;;;;;;;-144.82;100.00;71671.09;4957796;28;20031;-75
2022/06/06 07:16:46;;;;;;;6.50;4.13;;;;;;;-144.82;100.00;71671.09;4956103;29;20031;-75
2022/06/06 07:19:21;;;;;;;6.47;4.82;;;;;;;-144.82;100.00;71671.09;4956521;29;20485;-75
2022/06/06 07:21:49;;;;;;;5.38;4.78;;;;;;;-144.82;100.00;71671.09;4956406;29;20035;-72
2022/06/06 07:24:20;;;;;;;4.65;4.20;;;;;;;-144.82;100.00;71671.09;4956262;29;20106;-74
2022/06/06 07:26:47;;;;;;;6.73;5.13;;;;;;;-144.82;100.00;71671.09;4956115;29;20555;-74
2022/06/06 07:29:20;;;;;;;12.70;5.43;;;;;;;-144.82;100.00;71671.09;4957386;28;20027;-75
2022/06/06 07:32:13;;;;;;;5.40;4.40;;;;;;;-144.82;100.00;71671.09;4956188;29;20035;-74
2022/06/06 07:35:08;;;;;;;5.72;4.43;;;;;;;-144.82;100.00;71671.09;4961685;28;20047;-75
2022/06/06 07:37:58;;;;;;;10.45;4.88;;;;;;;-144.82;100.00;71671.09;4975176;28;20034;-73
2022/06/06 07:40:49;;;;;;;6.75;4.15;;;;;;;-144.82;100.00;71671.09;4976628;28;20085;-74
2022/06/06 07:43:28;;;;;;;4.90;4.50;;;;;;;-144.82;100.00;71671.09;4975065;28;20061;-75
2022/06/06 07:46:17;;;;;;;7.72;4.65;;;;;;;-144.82;100.00;71671.09;4975288;28;20022;-74
2022/06/06 07:49:26;;;;;;;5.28;4.03;;;;;;;-144.82;100.00;71671.09;4975294;28;20034;-75
2022/06/06 07:52:23;;;;;;;6.38;4.95;;;;;;;-144.82;100.00;71671.09;4935532;29;20051;-74
2022/06/06 07:54:57;;;;;;;6.28;4.88;;;;;;;-144.82;100.00;71671.09;4976746;28;20077;-73
2022/06/06 07:57:35;;;;;;;6.60;4.45;;;;;;;-144.82;100.00;71671.09;4974428;28;20081;-74
2022/06/06 08:00:10;;;;;;;5.25;4.75;;;;;;;-144.82;100.00;71671.09;4974486;28;20034;-74
2022/06/06 08:02:46;;;;;;;5.28;4.60;;;;;;;-144.82;100.00;71671.09;4976437;28;20029;-72
2022/06/06 08:05:34;;;;;;;5.68;5.13;;;;;;;-144.82;100.00;71671.09;4976042;28;20039;-73
2022/06/06 08:08:45;;;;;;;10.20;6.45;;;;;;;-144.82;100.00;71671.09;4976145;28;20124;-73
2022/06/06 08:11:20;;;;;;;7.90;5.20;;;;;;;-144.82;100.00;71671.09;4975502;28;20058;-75
2022/06/06 08:14:01;;;;;;;6.68;5.25;;;;;;;-144.82;100.00;71671.09;4959041;28;20088;-77
2022/06/06 08:16:54;;;;;;;8.27;4.93;;;;;;;-144.82;100.00;71671.09;4977133;28;20081;-73
2022/06/06 08:19:30;;;;;;;8.02;5.03;;;;;;;-144.82;100.00;71671.09;4976706;28;20031;-75
2022/06/06 08:21:56;;;;;;;7.22;5.60;;;;;;;-144.82;100.00;71671.09;4976928;28;20027;-74
2022/06/06 08:24:34;;;;;;;5.78;5.22;;;;;;;-144.82;100.00;71671.09;4959045;28;20037;-78
2022/06/06 08:27:02;;;;;;;9.20;7.45;;;;;;;-144.82;100.00;71671.09;4973315;28;20072;-75
2022/06/06 08:29:28;;;;;;;7.32;5.95;;;;;;;-144.82;100.00;71671.09;4974057;28;20038;-76
2022/06/06 08:31:55;;;;;;;5.93;5.32;;;;;;;-144.82;100.00;71671.09;4959290;28;20023;-74
2022/06/06 08:34:22;;;;;;;5.57;5.07;;;;;;;-144.82;100.00;71671.09;4979426;28;20399;-75
2022/06/06 08:37:05;;;;;;;4.63;4.18;;;;;;;-144.82;100.00;71671.09;4967913;28;20025;-75
2022/06/06 08:40:36;;;;;;;7.60;4.10;;;;;;;-144.82;100.00;71671.09;5015088;28;20022;-75
2022/06/06 08:43:11;;;;;;;6.83;5.03;;;;;;;-144.82;100.00;71671.09;4927525;29;20127;-75
2022/06/06 08:45:45;;;;;;;8.48;4.63;;;;;;;-144.82;100.00;71671.09;4931821;29;20052;-75
2022/06/06 08:48:48;;;;;;;5.07;4.47;;;;;;;-144.82;100.00;71671.09;4962522;28;20053;-74
2022/06/06 08:51:37;;;;;;;5.80;5.28;;;;;;;-144.82;100.00;71671.09;4995613;28;20022;-75
2022/06/06 08:54:22;;;;;;;6.88;4.95;;;;;;;-144.82;100.00;71671.09;4998941;28;20409;-75
2022/06/06 08:57:07;;;;;;;5.25;4.75;;;;;;;-144.82;100.00;71671.09;4995634;28;20117;-74
2022/06/06 08:59:48;;;;;;;5.30;4.80;;;;;;;-144.82;100.00;71671.09;4995390;28;20030;-76
2022/06/06 09:02:26;;;;;;;6.18;4.35;;;;;;;-144.82;100.00;71671.09;4995168;28;20463;-74
2022/06/06 09:05:10;;;;;;;7.07;4.00;;;;;;;-144.82;100.00;71671.09;4994896;28;20034;-74
2022/06/06 09:08:13;;;;;;;4.72;4.22;;;;;;;-144.82;100.00;71671.09;4977927;28;20029;-75
2022/06/06 09:11:16;;;;;;;5.28;4.47;;;;;;;-144.82;100.00;71671.09;4995780;28;20022;-74
2022/06/06 09:14:44;;;;;;;5.93;4.70;;;;;;;-144.82;100.00;71671.09;4995154;28;20105;-73
2022/06/06 09:17:54;;;;;;;4.45;3.95;;;;;;;-144.82;100.00;71671.09;4934667;29;20587;-77
2022/06/06 09:20:22;;;;;;;5.60;4.50;;;;;;;-144.82;100.00;71671.09;4951848;28;20034;-74
2022/06/06 09:22:52;;;;;;;5.85;4.57;;;;;;;-144.82;100.00;71671.09;4995324;28;20034;-74
2022/06/06 09:25:31;;;;;;;4.27;3.97;;;;;;;-144.82;100.00;71671.09;4995232;28;20113;-73
2022/06/06 09:28:24;;;;;;;12.63;5.38;;;;;;;-144.82;100.00;71671.09;4995774;28;20022;-75
2022/06/06 09:31:27;;;;;;;7.47;4.13;;;;;;;-144.82;100.00;71671.09;4995263;28;20030;-76
2022/06/06 09:34:18;;;;;;;5.22;4.72;;;;;;;-144.82;100.00;71671.09;4994784;28;20026;-74
2022/06/06 09:36:46;;;;;;;4.10;3.72;;;;;;;-144.82;100.00;71671.09;4977345;28;20030;-75
2022/06/06 09:39:54;;;;;;;4.55;3.90;;;;;;;-144.82;100.00;71671.09;4994679;28;20030;-73
2022/06/06 09:42:59;;;;;;;4.78;4.22;;;;;;;-144.82;100.00;71671.09;4994848;28;20058;-75
2022/06/06 09:45:30;;;;;;;8.20;4.05;;;;;;;-144.82;100.00;71671.09;4945838;28;20042;-74
2022/06/06 09:48:34;;;;;;;7.15;4.88;;;;;;;-144.82;100.00;71671.09;4995549;28;20527;-74
2022/06/06 09:51:26;;;;;;;4.40;4.00;;;;;;;-144.82;100.00;71671.09;4994414;28;20054;-75
2022/06/06 10:00:32;;;;;;;;;;;;;;;-144.82;100.00;71671.09;4994489;28;20557;-74
2022/06/06 10:03:28;;;;;;;4.50;4.10;;;;;;;-144.82;100.00;71671.09;4976138;28;19916;-74
2022/06/06 10:06:13;;;;;;;4.10;3.78;;;;;;;-144.82;100.00;71671.09;4993581;28;20037;-73
2022/06/06 10:09:14;;;;;;;3.97;3.67;;;;;;;-144.82;100.00;71671.09;4993432;28;20368;-73
2022/06/06 10:12:08;;;;;;;3.60;3.30;;;;;;;-144.82;100.00;71671.09;4975913;28;20050;-75
2022/06/06 10:15:07;;;;;;;5.50;3.92;;;;;;;-144.82;100.00;71671.09;4993698;28;20030;-74
2022/06/06 10:17:47;;;;;;;7.90;3.65;;;;;;;-144.82;100.00;71671.09;4950227;28;20054;-74
2022/06/06 10:20:32;;;;;;;3.60;2.97;;;;;;;-144.82;100.00;71671.09;4993583;28;20034;-74
2022/06/06 10:23:09;;;;;;;4.22;3.50;;;;;;;-144.82;100.00;71671.09;4993764;28;20031;-75
2022/06/06 10:26:03;;;;;;;4.22;2.97;;;;;;;-144.82;100.00;71671.09;4975977;28;20141;-74
2022/06/06 10:29:00;;;;;;;3.42;3.13;;;;;;;-144.82;100.00;71671.09;4976446;28;20033;-73
2022/06/06 10:31:47;;;;;;;3.15;2.40;;;;;;;-144.82;100.00;71671.09;4993488;28;20092;-76
2022/06/06 10:34:31;;;;;;;2.90;2.67;;;;;;;-144.82;100.00;71671.09;4993049;28;20038;-74
2022/06/06 10:37:23;;;;;;;6.68;3.22;;;;;;;-144.82;100.00;71671.09;4997089;28;20030;-74
2022/06/06 10:40:43;;;;;;;3.33;3.03;;;;;;;-144.82;100.00;71671.09;4899497;29;20127;-73
2022/06/06 10:43:37;;;;;;;2.72;2.53;;;;;;;-144.82;100.00;71671.09;4899187;29;20625;-73
2022/06/06 10:46:22;;;;;;;2.50;2.30;;;;;;;-144.82;100.00;71671.09;4899189;29;20127;-75
2022/06/06 10:49:25;;;;;;;2.58;2.38;;;;;;;-144.82;100.00;71671.09;4899152;29;20138;-74
2022/06/06 10:52:00;;;;;;;2.45;2.15;;;;;;;-144.82;100.00;71671.09;4883401;29;20041;-73
2022/06/06 10:55:01;;;;;;;2.05;1.65;;;;;;;-144.82;100.00;71671.09;4883376;29;20119;-74
2022/06/06 10:58:06;;;;;;;2.33;1.70;;;;;;;-144.82;100.00;71671.09;4934810;28;20505;-72
2022/06/06 11:00:54;;;;;;;3.53;1.02;;;;;;;-144.82;100.00;71671.09;4996947;28;20062;-72
2022/06/06 11:03:48;;;;;;;1.58;1.48;;;;;;;-144.82;100.00;71671.09;4996654;28;20041;-72
2022/06/06 11:06:42;;;;;;;2.03;1.05;;;;;;;-144.82;100.00;71671.09;4938752;28;20042;-72
2022/06/06 11:09:17;;;;;;;0.90;0.90;;;;;;;-144.82;100.00;71671.09;4979197;28;20026;-72
2022/06/06 11:12:02;;;;;;;2.22;1.10;;;;;;;-144.82;100.00;71671.09;4996455;28;20034;-75
2022/06/06 11:14:37;;;;;;;0.93;0.93;;;;;;;-144.82;100.00;71671.09;4996284;28;20543;-76
2022/06/06 11:17:31;;;;;;;1.17;1.05;;;;;;;-144.82;100.00;71671.09;4963195;28;20046;-75
2022/06/06 11:20:17;;;;;;;3.90;0.90;;;;;;;-144.82;100.00;71671.09;4996187;28;20396;-76
2022/06/06 11:23:02;;;;;;;1.50;1.40;;;;;;;-144.82;100.00;71671.09;4978807;28;20026;-75
2022/06/06 11:26:01;;;;;;;1.92;1.20;;;;;;;-144.82;100.00;71671.09;4995844;28;20030;-75
2022/06/06 11:28:54;;;;;;;1.70;1.00;;;;;;;-144.82;100.00;71671.09;4885921;29;20048;-75
2022/06/06 11:31:39;;;;;;;0.80;0.52;;;;;;;-144.82;100.00;71671.09;4898169;29;20044;-76
2022/06/06 11:34:34;;;;;;;2.35;0.80;;;;;;;-144.82;100.00;71671.09;4991106;28;20165;-76
2022/06/06 11:37:18;;;;;;;0.85;0.85;;;;;;;-144.82;100.00;71671.09;4995475;28;20029;-73
2022/06/06 11:40:12;;;;;;;1.00;0.85;;;;;;;-144.82;100.00;71671.09;4995714;28;20387;-74
2022/06/06 11:42:58;;;;;;;2.35;0.90;;;;;;;-144.82;100.00;71671.09;4981057;28;20030;-76
2022/06/06 11:45:50;;;;;;;2.40;0.90;;;;;;;-144.82;100.00;71671.09;4996286;28;20041;-78
2022/06/06 11:48:34;;;;;;;3.22;1.90;;;;;;;-144.82;100.00;71671.09;4977885;28;20030;-77
2022/06/06 11:51:32;;;;;;;0.80;0.80;;;;;;;-144.82;100.00;71671.09;4995990;28;20040;-76
2022/06/06 11:54:33;;;;;;;1.48;1.00;;;;;;;-144.82;100.00;71671.09;4996159;28;20034;-75
2022/06/06 11:57:23;;;;;;;1.00;0.93;;;;;;;-144.82;100.00;71671.09;4995856;28;20038;-76
2022/06/06 11:59:55;;;;;;;2.75;1.35;;;;;;;-144.82;100.00;71671.09;4995563;28;20308;-75
2022/06/06 12:02:31;;;;;;;1.60;1.10;;;;;;;-144.82;100.00;71671.09;5011552;28;20121;-74
2022/06/06 12:05:15;;;;;;;2.42;1.20;;;;;;;-144.82;100.00;71671.09;4989614;28;20030;-74
2022/06/06 12:08:15;;;;;;;15.40;2.42;;;;;;;-144.82;100.00;71671.09;4995644;28;20022;-75
2022/06/06 12:11:03;;;;;;;4.53;0.95;;;;;;;-144.82;100.00;71671.09;4994231;28;20053;-74
2022/06/06 12:13:41;;;;;;;1.92;1.13;;;;;;;-144.82;100.00;71671.09;4995366;28;20030;-74
2022/06/06 12:16:47;;;;;;;3.80;1.35;;;;;;;-144.82;100.00;71671.09;4995187;28;20143;-77
2022/06/06 12:19:55;;;;;;;4.80;1.02;;;;;;;-144.82;100.00;71671.09;4995480;28;20034;-75
2022/06/06 12:22:47;;;;;;;5.57;1.00;;;;;;;-144.82;100.00;71671.09;4974967;28;20042;-73
2022/06/06 12:25:36;;;;;;;1.63;0.90;;;;;;;-144.82;100.00;71671.09;4995294;28;20034;-75
2022/06/06 12:28:40;;;;;;;2.35;1.35;;;;;;;-144.82;100.00;71671.09;4977761;28;20022;-73
2022/06/06 12:31:44;;;;;;;1.17;1.08;;;;;;;-144.82;100.00;71671.09;4977497;28;20030;-74
2022/06/06 12:34:19;;;;;;;2.28;1.40;;;;;;;-144.82;100.00;71671.09;4994745;28;20038;-75
2022/06/06 12:36:56;;;;;;;1.15;1.05;;;;;;;-144.82;100.00;71671.09;4995090;28;20105;-74